sensor_id;sensor_type;location;lat;lon;timestamp;P1;durP1;ratioP1;P2;durP2;ratioP2
70313;SDS011;57725;47.526;18.986;2022-08-21T00:01:53;9.80;;;2.90;;
70313;SDS011;57725;47.526;18.986;2022-08-21T00:04:19;4.25;;;2.67;;
70313;SDS011;57725;47.526;18.986;2022-08-21T00:06:44;3.67;;;3.15;;
70313;SDS011;57725;47.526;18.986;2022-08-21T00:09:12;2.63;;;2.25;;
70313;SDS011;57725;47.526;18.986;2022-08-21T00:11:38;2.45;;;2.25;;
70313;SDS011;57725;47.526;18.986;2022-08-21T00:14:07;4.53;;;2.88;;
70313;SDS011;57725;47.526;18.986;2022-08-21T00:16:33;3.00;;;2.40;;
70313;SDS011;57725;47.526;18.986;2022-08-21T00:19:04;3.00;;;2.30;;
70313;SDS011;57725;47.526;18.986;2022-08-21T00:21:31;2.83;;;2.00;;
70313;SDS011;57725;47.526;18.986;2022-08-21T00:23:57;4.38;;;2.60;;
70313;SDS011;57725;47.526;18.986;2022-08-21T00:26:25;3.53;;;2.33;;
70313;SDS011;57725;47.526;18.986;2022-08-21T00:28:55;2.13;;;1.92;;
70313;SDS011;57725;47.526;18.986;2022-08-21T00:31:20;2.42;;;2.15;;
70313;SDS011;57725;47.526;18.986;2022-08-21T00:33:46;1.90;;;1.70;;
70313;SDS011;57725;47.526;18.986;2022-08-21T00:36:12;2.15;;;1.88;;
70313;SDS011;57725;47.526;18.986;2022-08-21T00:38:43;1.90;;;1.80;;
70313;SDS011;57725;47.526;18.986;2022-08-21T00:41:09;2.90;;;2.63;;
70313;SDS011;57725;47.526;18.986;2022-08-21T00:43:38;2.50;;;2.30;;
70313;SDS011;57725;47.526;18.986;2022-08-21T00:46:04;2.42;;;2.00;;
70313;SDS011;57725;47.526;18.986;2022-08-21T00:48:30;2.22;;;1.83;;
70313;SDS011;57725;47.526;18.986;2022-08-21T00:51:02;3.50;;;2.00;;
70313;SDS011;57725;47.526;18.986;2022-08-21T00:53:31;2.95;;;1.55;;
70313;SDS011;57725;47.526;18.986;2022-08-21T00:55:57;1.80;;;1.70;;
70313;SDS011;57725;47.526;18.986;2022-08-21T00:58:25;2.55;;;2.35;;
70313;SDS011;57725;47.526;18.986;2022-08-21T01:00:56;2.08;;;1.88;;
70313;SDS011;57725;47.526;18.986;2022-08-21T01:03:24;2.38;;;1.77;;
70313;SDS011;57725;47.526;18.986;2022-08-21T01:05:52;3.22;;;2.03;;
70313;SDS011;57725;47.526;18.986;2022-08-21T01:08:18;2.70;;;2.20;;
70313;SDS011;57725;47.526;18.986;2022-08-21T01:10:45;2.58;;;2.38;;
70313;SDS011;57725;47.526;18.986;2022-08-21T01:13:13;2.45;;;1.88;;
70313;SDS011;57725;47.526;18.986;2022-08-21T01:15:44;2.40;;;2.10;;
70313;SDS011;57725;47.526;18.986;2022-08-21T01:18:14;2.33;;;2.05;;
70313;SDS011;57725;47.526;18.986;2022-08-21T01:20:43;2.40;;;2.20;;
70313;SDS011;57725;47.526;18.986;2022-08-21T01:23:14;5.38;;;2.47;;
70313;SDS011;57725;47.526;18.986;2022-08-21T01:25:42;2.38;;;2.17;;
70313;SDS011;57725;47.526;18.986;2022-08-21T01:28:11;2.30;;;2.10;;
70313;SDS011;57725;47.526;18.986;2022-08-21T01:30:40;2.00;;;1.80;;
70313;SDS011;57725;47.526;18.986;2022-08-21T01:33:08;2.10;;;1.90;;
70313;SDS011;57725;47.526;18.986;2022-08-21T01:35:37;2.33;;;2.13;;
70313;SDS011;57725;47.526;18.986;2022-08-21T01:38:03;2.30;;;2.10;;
70313;SDS011;57725;47.526;18.986;2022-08-21T01:40:29;3.15;;;2.42;;
70313;SDS011;57725;47.526;18.986;2022-08-21T01:42:57;1.90;;;1.65;;
70313;SDS011;57725;47.526;18.986;2022-08-21T01:45:22;2.33;;;2.13;;
70313;SDS011;57725;47.526;18.986;2022-08-21T01:47:52;2.60;;;2.15;;
70313;SDS011;57725;47.526;18.986;2022-08-21T01:50:20;2.42;;;2.22;;
70313;SDS011;57725;47.526;18.986;2022-08-21T01:52:48;2.13;;;1.92;;
70313;SDS011;57725;47.526;18.986;2022-08-21T01:55:17;2.70;;;2.25;;
70313;SDS011;57725;47.526;18.986;2022-08-21T01:57:43;1.75;;;1.50;;
70313;SDS011;57725;47.526;18.986;2022-08-21T02:00:16;2.15;;;1.90;;
70313;SDS011;57725;47.526;18.986;2022-08-21T02:02:48;2.72;;;2.47;;
70313;SDS011;57725;47.526;18.986;2022-08-21T02:05:16;2.50;;;2.30;;
70313;SDS011;57725;47.526;18.986;2022-08-21T02:07:47;2.53;;;2.25;;
70313;SDS011;57725;47.526;18.986;2022-08-21T02:10:17;4.00;;;2.00;;
70313;SDS011;57725;47.526;18.986;2022-08-21T02:12:54;2.35;;;2.10;;
70313;SDS011;57725;47.526;18.986;2022-08-21T02:15:23;16.95;;;3.58;;
70313;SDS011;57725;47.526;18.986;2022-08-21T02:17:53;4.70;;;2.15;;
70313;SDS011;57725;47.526;18.986;2022-08-21T02:20:32;2.53;;;2.33;;
70313;SDS011;57725;47.526;18.986;2022-08-21T02:23:02;2.30;;;2.10;;
70313;SDS011;57725;47.526;18.986;2022-08-21T02:25:31;3.35;;;3.05;;
70313;SDS011;57725;47.526;18.986;2022-08-21T02:28:01;2.55;;;2.10;;
70313;SDS011;57725;47.526;18.986;2022-08-21T02:30:30;2.60;;;1.77;;
70313;SDS011;57725;47.526;18.986;2022-08-21T02:32:58;2.63;;;2.38;;
70313;SDS011;57725;47.526;18.986;2022-08-21T02:35:27;2.95;;;2.53;;
70313;SDS011;57725;47.526;18.986;2022-08-21T02:38:01;2.70;;;2.50;;
70313;SDS011;57725;47.526;18.986;2022-08-21T02:40:30;2.42;;;2.20;;
70313;SDS011;57725;47.526;18.986;2022-08-21T02:42:58;2.40;;;2.10;;
70313;SDS011;57725;47.526;18.986;2022-08-21T02:45:28;2.35;;;2.00;;
70313;SDS011;57725;47.526;18.986;2022-08-21T02:48:01;2.58;;;2.38;;
70313;SDS011;57725;47.526;18.986;2022-08-21T02:50:32;2.28;;;2.05;;
70313;SDS011;57725;47.526;18.986;2022-08-21T02:53:00;3.15;;;2.65;;
70313;SDS011;57725;47.526;18.986;2022-08-21T02:55:27;2.25;;;2.05;;
70313;SDS011;57725;47.526;18.986;2022-08-21T02:57:55;2.65;;;2.45;;
70313;SDS011;57725;47.526;18.986;2022-08-21T03:00:24;2.53;;;2.30;;
70313;SDS011;57725;47.526;18.986;2022-08-21T03:02:52;3.20;;;2.47;;
70313;SDS011;57725;47.526;18.986;2022-08-21T03:05:18;2.60;;;2.40;;
70313;SDS011;57725;47.526;18.986;2022-08-21T03:07:47;2.03;;;1.83;;
70313;SDS011;57725;47.526;18.986;2022-08-21T03:10:13;2.53;;;2.33;;
70313;SDS011;57725;47.526;18.986;2022-08-21T03:12:39;3.70;;;2.75;;
70313;SDS011;57725;47.526;18.986;2022-08-21T03:15:08;3.28;;;2.40;;
70313;SDS011;57725;47.526;18.986;2022-08-21T03:17:38;2.97;;;2.33;;
70313;SDS011;57725;47.526;18.986;2022-08-21T03:20:04;2.90;;;2.60;;
70313;SDS011;57725;47.526;18.986;2022-08-21T03:22:31;2.85;;;2.40;;
70313;SDS011;57725;47.526;18.986;2022-08-21T03:24:57;2.92;;;2.63;;
70313;SDS011;57725;47.526;18.986;2022-08-21T03:27:29;4.70;;;2.78;;
70313;SDS011;57725;47.526;18.986;2022-08-21T03:29:56;3.17;;;2.85;;
70313;SDS011;57725;47.526;18.986;2022-08-21T03:32:21;3.22;;;2.53;;
70313;SDS011;57725;47.526;18.986;2022-08-21T03:34:47;2.55;;;2.35;;
70313;SDS011;57725;47.526;18.986;2022-08-21T03:37:15;3.47;;;3.15;;
70313;SDS011;57725;47.526;18.986;2022-08-21T03:39:41;3.50;;;2.65;;
70313;SDS011;57725;47.526;18.986;2022-08-21T03:42:06;4.25;;;2.80;;
70313;SDS011;57725;47.526;18.986;2022-08-21T03:44:32;3.25;;;2.67;;
70313;SDS011;57725;47.526;18.986;2022-08-21T03:47:01;3.30;;;2.53;;
70313;SDS011;57725;47.526;18.986;2022-08-21T03:49:32;3.47;;;2.53;;
70313;SDS011;57725;47.526;18.986;2022-08-21T03:51:58;3.17;;;2.88;;
70313;SDS011;57725;47.526;18.986;2022-08-21T03:54:24;3.75;;;2.63;;
70313;SDS011;57725;47.526;18.986;2022-08-21T03:56:51;3.00;;;2.70;;
70313;SDS011;57725;47.526;18.986;2022-08-21T03:59:17;2.50;;;2.30;;
70313;SDS011;57725;47.526;18.986;2022-08-21T04:01:55;3.00;;;2.70;;
70313;SDS011;57725;47.526;18.986;2022-08-21T04:04:28;3.80;;;2.53;;
70313;SDS011;57725;47.526;18.986;2022-08-21T04:06:56;3.13;;;2.83;;
70313;SDS011;57725;47.526;18.986;2022-08-21T04:09:25;4.13;;;3.53;;
70313;SDS011;57725;47.526;18.986;2022-08-21T04:11:51;3.80;;;2.55;;
70313;SDS011;57725;47.526;18.986;2022-08-21T04:14:19;3.20;;;2.75;;
70313;SDS011;57725;47.526;18.986;2022-08-21T04:16:45;3.15;;;2.80;;
70313;SDS011;57725;47.526;18.986;2022-08-21T04:19:13;3.47;;;2.92;;
70313;SDS011;57725;47.526;18.986;2022-08-21T04:21:43;3.08;;;2.78;;
70313;SDS011;57725;47.526;18.986;2022-08-21T04:24:08;2.95;;;2.53;;
70313;SDS011;57725;47.526;18.986;2022-08-21T04:26:35;3.35;;;3.03;;
70313;SDS011;57725;47.526;18.986;2022-08-21T04:29:02;3.83;;;3.25;;
70313;SDS011;57725;47.526;18.986;2022-08-21T04:31:33;3.22;;;2.92;;
70313;SDS011;57725;47.526;18.986;2022-08-21T04:34:01;3.25;;;2.95;;
70313;SDS011;57725;47.526;18.986;2022-08-21T04:36:27;4.15;;;3.33;;
70313;SDS011;57725;47.526;18.986;2022-08-21T04:38:55;3.25;;;2.80;;
70313;SDS011;57725;47.526;18.986;2022-08-21T04:41:25;3.20;;;2.90;;
70313;SDS011;57725;47.526;18.986;2022-08-21T04:43:54;3.53;;;2.88;;
70313;SDS011;57725;47.526;18.986;2022-08-21T04:46:22;4.35;;;2.72;;
70313;SDS011;57725;47.526;18.986;2022-08-21T04:48:48;3.72;;;3.15;;
70313;SDS011;57725;47.526;18.986;2022-08-21T04:51:24;3.72;;;2.95;;
70313;SDS011;57725;47.526;18.986;2022-08-21T04:54:02;4.68;;;2.97;;
70313;SDS011;57725;47.526;18.986;2022-08-21T04:56:47;3.40;;;2.85;;
70313;SDS011;57725;47.526;18.986;2022-08-21T04:59:17;3.30;;;3.00;;
70313;SDS011;57725;47.526;18.986;2022-08-21T05:01:48;3.05;;;2.72;;
70313;SDS011;57725;47.526;18.986;2022-08-21T05:04:20;4.20;;;3.67;;
70313;SDS011;57725;47.526;18.986;2022-08-21T05:06:49;3.42;;;2.85;;
70313;SDS011;57725;47.526;18.986;2022-08-21T05:09:17;3.92;;;3.08;;
70313;SDS011;57725;47.526;18.986;2022-08-21T05:11:45;3.20;;;2.70;;
70313;SDS011;57725;47.526;18.986;2022-08-21T05:14:11;2.85;;;2.55;;
70313;SDS011;57725;47.526;18.986;2022-08-21T05:16:37;3.53;;;2.90;;
70313;SDS011;57725;47.526;18.986;2022-08-21T05:19:06;4.60;;;3.08;;
70313;SDS011;57725;47.526;18.986;2022-08-21T05:21:40;3.80;;;2.88;;
70313;SDS011;57725;47.526;18.986;2022-08-21T05:24:12;3.30;;;2.83;;
70313;SDS011;57725;47.526;18.986;2022-08-21T05:26:38;3.47;;;2.70;;
70313;SDS011;57725;47.526;18.986;2022-08-21T05:29:04;3.15;;;2.85;;
70313;SDS011;57725;47.526;18.986;2022-08-21T05:31:29;3.20;;;2.90;;
70313;SDS011;57725;47.526;18.986;2022-08-21T05:33:55;3.10;;;2.80;;
70313;SDS011;57725;47.526;18.986;2022-08-21T05:36:23;3.83;;;2.92;;
70313;SDS011;57725;47.526;18.986;2022-08-21T05:38:49;3.92;;;3.08;;
70313;SDS011;57725;47.526;18.986;2022-08-21T05:41:14;3.55;;;2.95;;
70313;SDS011;57725;47.526;18.986;2022-08-21T05:43:39;3.47;;;3.08;;
70313;SDS011;57725;47.526;18.986;2022-08-21T05:46:06;2.92;;;2.63;;
70313;SDS011;57725;47.526;18.986;2022-08-21T05:48:34;3.13;;;2.83;;
70313;SDS011;57725;47.526;18.986;2022-08-21T05:51:08;3.35;;;2.83;;
70313;SDS011;57725;47.526;18.986;2022-08-21T05:53:38;3.35;;;3.05;;
70313;SDS011;57725;47.526;18.986;2022-08-21T05:56:07;3.85;;;2.72;;
70313;SDS011;57725;47.526;18.986;2022-08-21T05:58:38;2.97;;;2.63;;
70313;SDS011;57725;47.526;18.986;2022-08-21T06:01:06;3.15;;;2.85;;
70313;SDS011;57725;47.526;18.986;2022-08-21T06:03:34;3.55;;;3.25;;
70313;SDS011;57725;47.526;18.986;2022-08-21T06:06:01;3.65;;;2.58;;
70313;SDS011;57725;47.526;18.986;2022-08-21T06:08:30;3.22;;;2.92;;
70313;SDS011;57725;47.526;18.986;2022-08-21T06:10:59;3.10;;;2.80;;
70313;SDS011;57725;47.526;18.986;2022-08-21T06:13:26;3.00;;;2.70;;
70313;SDS011;57725;47.526;18.986;2022-08-21T06:16:10;3.00;;;2.70;;
70313;SDS011;57725;47.526;18.986;2022-08-21T06:18:38;3.13;;;2.72;;
70313;SDS011;57725;47.526;18.986;2022-08-21T06:21:07;2.95;;;2.63;;
70313;SDS011;57725;47.526;18.986;2022-08-21T06:23:33;3.30;;;2.63;;
70313;SDS011;57725;47.526;18.986;2022-08-21T06:26:04;3.03;;;2.60;;
70313;SDS011;57725;47.526;18.986;2022-08-21T06:28:31;2.97;;;2.65;;
70313;SDS011;57725;47.526;18.986;2022-08-21T06:31:00;3.08;;;2.67;;
70313;SDS011;57725;47.526;18.986;2022-08-21T06:33:26;3.53;;;3.22;;
70313;SDS011;57725;47.526;18.986;2022-08-21T06:35:54;3.25;;;2.90;;
70313;SDS011;57725;47.526;18.986;2022-08-21T06:38:21;2.97;;;2.70;;
70313;SDS011;57725;47.526;18.986;2022-08-21T06:40:52;2.90;;;2.67;;
70313;SDS011;57725;47.526;18.986;2022-08-21T06:43:20;3.63;;;3.10;;
70313;SDS011;57725;47.526;18.986;2022-08-21T06:45:45;4.30;;;3.13;;
70313;SDS011;57725;47.526;18.986;2022-08-21T06:48:13;3.40;;;2.63;;
70313;SDS011;57725;47.526;18.986;2022-08-21T06:50:38;3.22;;;2.92;;
70313;SDS011;57725;47.526;18.986;2022-08-21T06:53:08;4.07;;;2.70;;
70313;SDS011;57725;47.526;18.986;2022-08-21T06:55:38;3.28;;;2.97;;
70313;SDS011;57725;47.526;18.986;2022-08-21T06:58:05;3.20;;;2.90;;
70313;SDS011;57725;47.526;18.986;2022-08-21T07:00:31;3.20;;;2.90;;
70313;SDS011;57725;47.526;18.986;2022-08-21T07:02:57;2.85;;;2.60;;
70313;SDS011;57725;47.526;18.986;2022-08-21T07:05:29;2.30;;;2.10;;
70313;SDS011;57725;47.526;18.986;2022-08-21T07:07:55;2.85;;;2.65;;
70313;SDS011;57725;47.526;18.986;2022-08-21T07:10:22;3.38;;;2.80;;
70313;SDS011;57725;47.526;18.986;2022-08-21T07:12:48;3.17;;;2.88;;
70313;SDS011;57725;47.526;18.986;2022-08-21T07:15:14;3.35;;;3.05;;
70313;SDS011;57725;47.526;18.986;2022-08-21T07:17:39;2.90;;;2.60;;
70313;SDS011;57725;47.526;18.986;2022-08-21T07:20:07;3.42;;;3.13;;
70313;SDS011;57725;47.526;18.986;2022-08-21T07:22:35;3.50;;;3.20;;
70313;SDS011;57725;47.526;18.986;2022-08-21T07:25:03;4.22;;;3.67;;
70313;SDS011;57725;47.526;18.986;2022-08-21T07:27:32;3.85;;;2.85;;
70313;SDS011;57725;47.526;18.986;2022-08-21T07:30:00;2.55;;;2.35;;
70313;SDS011;57725;47.526;18.986;2022-08-21T07:32:25;3.55;;;3.25;;
70313;SDS011;57725;47.526;18.986;2022-08-21T07:34:51;3.08;;;2.78;;
70313;SDS011;57725;47.526;18.986;2022-08-21T07:37:16;2.78;;;2.58;;
70313;SDS011;57725;47.526;18.986;2022-08-21T07:39:42;3.05;;;2.75;;
70313;SDS011;57725;47.526;18.986;2022-08-21T07:42:13;3.30;;;2.83;;
70313;SDS011;57725;47.526;18.986;2022-08-21T07:44:41;3.08;;;2.78;;
70313;SDS011;57725;47.526;18.986;2022-08-21T07:47:08;3.33;;;3.03;;
70313;SDS011;57725;47.526;18.986;2022-08-21T07:49:34;3.08;;;2.70;;
70313;SDS011;57725;47.526;18.986;2022-08-21T07:51:59;3.15;;;2.85;;
70313;SDS011;57725;47.526;18.986;2022-08-21T07:54:26;3.33;;;3.03;;
70313;SDS011;57725;47.526;18.986;2022-08-21T07:56:51;3.28;;;2.97;;
70313;SDS011;57725;47.526;18.986;2022-08-21T07:59:19;3.42;;;3.13;;
70313;SDS011;57725;47.526;18.986;2022-08-21T08:01:44;3.40;;;3.03;;
70313;SDS011;57725;47.526;18.986;2022-08-21T08:04:10;2.95;;;2.72;;
70313;SDS011;57725;47.526;18.986;2022-08-21T08:06:42;3.00;;;2.60;;
70313;SDS011;57725;47.526;18.986;2022-08-21T08:09:07;3.55;;;3.25;;
70313;SDS011;57725;47.526;18.986;2022-08-21T08:11:33;3.83;;;3.15;;
70313;SDS011;57725;47.526;18.986;2022-08-21T08:14:00;3.55;;;3.22;;
70313;SDS011;57725;47.526;18.986;2022-08-21T08:16:30;3.25;;;2.95;;
70313;SDS011;57725;47.526;18.986;2022-08-21T08:18:58;3.33;;;3.03;;
70313;SDS011;57725;47.526;18.986;2022-08-21T08:21:23;3.00;;;2.75;;
70313;SDS011;57725;47.526;18.986;2022-08-21T08:23:49;3.53;;;3.22;;
70313;SDS011;57725;47.526;18.986;2022-08-21T08:26:17;3.22;;;2.90;;
70313;SDS011;57725;47.526;18.986;2022-08-21T08:28:42;4.03;;;3.38;;
70313;SDS011;57725;47.526;18.986;2022-08-21T08:31:08;3.10;;;2.80;;
70313;SDS011;57725;47.526;18.986;2022-08-21T08:33:33;3.65;;;3.17;;
70313;SDS011;57725;47.526;18.986;2022-08-21T08:35:58;3.17;;;2.88;;
70313;SDS011;57725;47.526;18.986;2022-08-21T08:38:24;3.55;;;3.15;;
70313;SDS011;57725;47.526;18.986;2022-08-21T08:40:54;3.58;;;3.28;;
70313;SDS011;57725;47.526;18.986;2022-08-21T08:43:31;3.67;;;3.15;;
70313;SDS011;57725;47.526;18.986;2022-08-21T08:45:59;3.30;;;3.00;;
70313;SDS011;57725;47.526;18.986;2022-08-21T08:51:25;4.60;;;3.65;;
70313;SDS011;57725;47.526;18.986;2022-08-21T08:54:13;3.42;;;3.13;;
70313;SDS011;57725;47.526;18.986;2022-08-21T08:56:44;3.35;;;3.05;;
70313;SDS011;57725;47.526;18.986;2022-08-21T08:59:19;4.20;;;3.10;;
70313;SDS011;57725;47.526;18.986;2022-08-21T09:01:51;3.97;;;3.40;;
70313;SDS011;57725;47.526;18.986;2022-08-21T09:04:18;3.72;;;3.40;;
70313;SDS011;57725;47.526;18.986;2022-08-21T09:12:02;3.60;;;3.30;;
70313;SDS011;57725;47.526;18.986;2022-08-21T09:14:38;2.92;;;2.70;;
70313;SDS011;57725;47.526;18.986;2022-08-21T09:25:20;4.45;;;3.70;;
70313;SDS011;57725;47.526;18.986;2022-08-21T09:27:51;4.82;;;3.75;;
70313;SDS011;57725;47.526;18.986;2022-08-21T09:30:17;4.55;;;4.15;;
70313;SDS011;57725;47.526;18.986;2022-08-21T09:32:46;4.03;;;3.60;;
70313;SDS011;57725;47.526;18.986;2022-08-21T09:35:15;4.38;;;3.97;;
70313;SDS011;57725;47.526;18.986;2022-08-21T09:41:07;4.20;;;3.80;;
70313;SDS011;57725;47.526;18.986;2022-08-21T09:43:26;3.83;;;3.53;;
70313;SDS011;57725;47.526;18.986;2022-08-21T09:46:21;4.47;;;4.07;;
70313;SDS011;57725;47.526;18.986;2022-08-21T09:48:51;4.60;;;4.20;;
70313;SDS011;57725;47.526;18.986;2022-08-21T09:51:20;3.85;;;3.55;;
70313;SDS011;57725;47.526;18.986;2022-08-21T09:53:51;4.22;;;3.83;;
70313;SDS011;57725;47.526;18.986;2022-08-21T09:56:27;4.20;;;3.80;;
70313;SDS011;57725;47.526;18.986;2022-08-21T09:59:13;4.68;;;4.28;;
70313;SDS011;57725;47.526;18.986;2022-08-21T10:01:45;4.88;;;4.38;;
70313;SDS011;57725;47.526;18.986;2022-08-21T10:04:19;4.70;;;4.20;;
70313;SDS011;57725;47.526;18.986;2022-08-21T10:06:46;4.93;;;4.50;;
70313;SDS011;57725;47.526;18.986;2022-08-21T10:09:13;4.85;;;4.38;;
70313;SDS011;57725;47.526;18.986;2022-08-21T10:11:46;4.88;;;4.47;;
70313;SDS011;57725;47.526;18.986;2022-08-21T10:22:27;6.30;;;4.75;;
70313;SDS011;57725;47.526;18.986;2022-08-21T10:25:23;5.28;;;4.55;;
70313;SDS011;57725;47.526;18.986;2022-08-21T10:46:17;6.10;;;5.30;;
70313;SDS011;57725;47.526;18.986;2022-08-21T11:00:59;5.30;;;4.80;;
70313;SDS011;57725;47.526;18.986;2022-08-21T11:06:14;5.47;;;4.97;;
70313;SDS011;57725;47.526;18.986;2022-08-21T11:08:47;5.30;;;4.80;;
70313;SDS011;57725;47.526;18.986;2022-08-21T11:11:20;5.30;;;4.80;;
70313;SDS011;57725;47.526;18.986;2022-08-21T11:14:01;5.43;;;4.93;;
70313;SDS011;57725;47.526;18.986;2022-08-21T11:16:45;4.78;;;4.38;;
70313;SDS011;57725;47.526;18.986;2022-08-21T11:19:22;5.72;;;5.18;;
70313;SDS011;57725;47.526;18.986;2022-08-21T11:30:27;5.32;;;4.80;;
70313;SDS011;57725;47.526;18.986;2022-08-21T11:39:16;4.78;;;4.38;;
70313;SDS011;57725;47.526;18.986;2022-08-21T11:50:11;4.70;;;4.30;;
70313;SDS011;57725;47.526;18.986;2022-08-21T11:52:49;5.38;;;4.85;;
70313;SDS011;57725;47.526;18.986;2022-08-21T11:55:23;5.35;;;4.85;;
70313;SDS011;57725;47.526;18.986;2022-08-21T12:01:09;5.53;;;5.03;;
70313;SDS011;57725;47.526;18.986;2022-08-21T12:03:36;5.43;;;4.90;;
70313;SDS011;57725;47.526;18.986;2022-08-21T12:06:07;5.05;;;4.53;;
70313;SDS011;57725;47.526;18.986;2022-08-21T12:08:42;5.57;;;4.97;;
70313;SDS011;57725;47.526;18.986;2022-08-21T12:13:59;5.05;;;4.55;;
70313;SDS011;57725;47.526;18.986;2022-08-21T12:16:43;5.63;;;5.13;;
70313;SDS011;57725;47.526;18.986;2022-08-21T12:29:47;5.13;;;4.63;;
70313;SDS011;57725;47.526;18.986;2022-08-21T12:39:48;5.50;;;4.88;;
70313;SDS011;57725;47.526;18.986;2022-08-21T12:42:18;5.13;;;4.70;;
70313;SDS011;57725;47.526;18.986;2022-08-21T12:44:51;5.45;;;4.95;;
70313;SDS011;57725;47.526;18.986;2022-08-21T12:50:12;5.80;;;4.90;;
70313;SDS011;57725;47.526;18.986;2022-08-21T12:52:48;5.07;;;4.55;;
70313;SDS011;57725;47.526;18.986;2022-08-21T12:55:29;4.70;;;4.30;;
70313;SDS011;57725;47.526;18.986;2022-08-21T12:57:55;6.63;;;4.90;;
70313;SDS011;57725;47.526;18.986;2022-08-21T13:00:22;4.82;;;4.38;;
70313;SDS011;57725;47.526;18.986;2022-08-21T13:02:50;6.90;;;5.28;;
70313;SDS011;57725;47.526;18.986;2022-08-21T13:05:33;5.32;;;4.88;;
70313;SDS011;57725;47.526;18.986;2022-08-21T13:08:04;5.53;;;4.85;;
70313;SDS011;57725;47.526;18.986;2022-08-21T13:10:32;9.05;;;4.80;;
70313;SDS011;57725;47.526;18.986;2022-08-21T13:13:00;5.05;;;4.55;;
70313;SDS011;57725;47.526;18.986;2022-08-21T13:15:37;4.78;;;4.28;;
70313;SDS011;57725;47.526;18.986;2022-08-21T13:18:05;5.05;;;4.65;;
70313;SDS011;57725;47.526;18.986;2022-08-21T13:20:38;5.53;;;5.03;;
70313;SDS011;57725;47.526;18.986;2022-08-21T13:23:28;5.82;;;4.95;;
70313;SDS011;57725;47.526;18.986;2022-08-21T13:25:55;5.47;;;4.93;;
70313;SDS011;57725;47.526;18.986;2022-08-21T13:28:23;6.10;;;4.90;;
70313;SDS011;57725;47.526;18.986;2022-08-21T13:30:58;5.78;;;5.18;;
70313;SDS011;57725;47.526;18.986;2022-08-21T13:33:24;4.90;;;4.47;;
70313;SDS011;57725;47.526;18.986;2022-08-21T13:38:26;5.10;;;4.60;;
70313;SDS011;57725;47.526;18.986;2022-08-21T13:40:58;4.93;;;4.43;;
70313;SDS011;57725;47.526;18.986;2022-08-21T13:43:31;5.45;;;4.93;;
70313;SDS011;57725;47.526;18.986;2022-08-21T13:46:10;5.95;;;4.80;;
70313;SDS011;57725;47.526;18.986;2022-08-21T13:48:38;5.22;;;4.72;;
70313;SDS011;57725;47.526;18.986;2022-08-21T13:51:03;5.13;;;4.63;;
70313;SDS011;57725;47.526;18.986;2022-08-21T13:53:34;5.07;;;4.57;;
70313;SDS011;57725;47.526;18.986;2022-08-21T13:56:20;5.28;;;4.05;;
70313;SDS011;57725;47.526;18.986;2022-08-21T13:58:51;5.10;;;4.70;;
70313;SDS011;57725;47.526;18.986;2022-08-21T14:01:25;5.50;;;4.25;;
70313;SDS011;57725;47.526;18.986;2022-08-21T14:03:56;4.90;;;4.32;;
70313;SDS011;57725;47.526;18.986;2022-08-21T14:06:51;4.38;;;3.97;;
70313;SDS011;57725;47.526;18.986;2022-08-21T14:11:52;4.45;;;4.05;;
70313;SDS011;57725;47.526;18.986;2022-08-21T14:16:52;4.40;;;4.00;;
70313;SDS011;57725;47.526;18.986;2022-08-21T14:19:24;4.38;;;3.97;;
70313;SDS011;57725;47.526;18.986;2022-08-21T14:21:52;4.28;;;3.88;;
70313;SDS011;57725;47.526;18.986;2022-08-21T14:29:22;4.53;;;4.03;;
70313;SDS011;57725;47.526;18.986;2022-08-21T14:31:51;4.57;;;3.47;;
70313;SDS011;57725;47.526;18.986;2022-08-21T14:34:18;4.22;;;3.92;;
70313;SDS011;57725;47.526;18.986;2022-08-21T14:36:48;4.10;;;3.80;;
70313;SDS011;57725;47.526;18.986;2022-08-21T14:39:16;3.80;;;3.47;;
70313;SDS011;57725;47.526;18.986;2022-08-21T14:41:42;4.43;;;4.03;;
70313;SDS011;57725;47.526;18.986;2022-08-21T14:44:10;3.20;;;2.90;;
70313;SDS011;57725;47.526;18.986;2022-08-21T14:46:36;3.67;;;3.38;;
70313;SDS011;57725;47.526;18.986;2022-08-21T14:49:03;4.05;;;3.70;;
70313;SDS011;57725;47.526;18.986;2022-08-21T14:51:31;4.30;;;3.90;;
70313;SDS011;57725;47.526;18.986;2022-08-21T14:53:56;3.53;;;3.22;;
70313;SDS011;57725;47.526;18.986;2022-08-21T14:56:22;3.70;;;3.40;;
70313;SDS011;57725;47.526;18.986;2022-08-21T14:59:02;3.97;;;3.58;;
70313;SDS011;57725;47.526;18.986;2022-08-21T15:01:31;5.35;;;3.65;;
70313;SDS011;57725;47.526;18.986;2022-08-21T15:04:02;3.80;;;3.47;;
70313;SDS011;57725;47.526;18.986;2022-08-21T15:06:30;3.72;;;3.42;;
70313;SDS011;57725;47.526;18.986;2022-08-21T15:08:58;3.95;;;3.63;;
70313;SDS011;57725;47.526;18.986;2022-08-21T15:11:28;4.15;;;3.58;;
70313;SDS011;57725;47.526;18.986;2022-08-21T15:13:55;4.32;;;3.63;;
70313;SDS011;57725;47.526;18.986;2022-08-21T15:16:26;3.63;;;3.33;;
70313;SDS011;57725;47.526;18.986;2022-08-21T15:18:58;3.70;;;3.38;;
70313;SDS011;57725;47.526;18.986;2022-08-21T15:21:23;3.42;;;3.13;;
70313;SDS011;57725;47.526;18.986;2022-08-21T15:23:51;3.80;;;3.50;;
70313;SDS011;57725;47.526;18.986;2022-08-21T15:26:17;3.70;;;3.40;;
70313;SDS011;57725;47.526;18.986;2022-08-21T15:28:43;3.35;;;3.05;;
70313;SDS011;57725;47.526;18.986;2022-08-21T15:31:09;3.38;;;3.08;;
70313;SDS011;57725;47.526;18.986;2022-08-21T15:33:36;3.38;;;3.08;;
70313;SDS011;57725;47.526;18.986;2022-08-21T15:36:04;3.47;;;2.90;;
70313;SDS011;57725;47.526;18.986;2022-08-21T15:38:32;3.60;;;3.15;;
70313;SDS011;57725;47.526;18.986;2022-08-21T15:41:01;3.42;;;3.13;;
70313;SDS011;57725;47.526;18.986;2022-08-21T15:43:32;2.92;;;2.70;;
70313;SDS011;57725;47.526;18.986;2022-08-21T15:46:20;2.70;;;2.50;;
70313;SDS011;57725;47.526;18.986;2022-08-21T15:48:46;2.88;;;2.67;;
70313;SDS011;57725;47.526;18.986;2022-08-21T15:51:16;2.75;;;2.42;;
70313;SDS011;57725;47.526;18.986;2022-08-21T15:53:44;3.42;;;3.13;;
70313;SDS011;57725;47.526;18.986;2022-08-21T15:58:50;2.97;;;2.75;;
70313;SDS011;57725;47.526;18.986;2022-08-21T16:01:17;4.13;;;3.63;;
70313;SDS011;57725;47.526;18.986;2022-08-21T16:03:45;3.30;;;3.00;;
70313;SDS011;57725;47.526;18.986;2022-08-21T16:06:15;3.15;;;2.80;;
70313;SDS011;57725;47.526;18.986;2022-08-21T16:08:40;3.00;;;2.75;;
70313;SDS011;57725;47.526;18.986;2022-08-21T16:11:09;2.90;;;2.47;;
70313;SDS011;57725;47.526;18.986;2022-08-21T16:13:39;2.60;;;2.40;;
70313;SDS011;57725;47.526;18.986;2022-08-21T16:16:09;2.58;;;2.38;;
70313;SDS011;57725;47.526;18.986;2022-08-21T16:18:37;2.92;;;2.72;;
70313;SDS011;57725;47.526;18.986;2022-08-21T16:21:04;2.63;;;2.38;;
70313;SDS011;57725;47.526;18.986;2022-08-21T16:23:29;4.45;;;2.47;;
70313;SDS011;57725;47.526;18.986;2022-08-21T16:25:57;2.85;;;2.65;;
70313;SDS011;57725;47.526;18.986;2022-08-21T16:28:27;2.60;;;2.40;;
70313;SDS011;57725;47.526;18.986;2022-08-21T16:31:00;2.30;;;2.10;;
70313;SDS011;57725;47.526;18.986;2022-08-21T16:33:36;2.90;;;2.60;;
70313;SDS011;57725;47.526;18.986;2022-08-21T16:36:08;2.50;;;2.25;;
70313;SDS011;57725;47.526;18.986;2022-08-21T16:38:35;2.13;;;1.92;;
70313;SDS011;57725;47.526;18.986;2022-08-21T16:41:02;2.78;;;2.55;;
70313;SDS011;57725;47.526;18.986;2022-08-21T16:43:29;2.33;;;2.13;;
70313;SDS011;57725;47.526;18.986;2022-08-21T16:45:55;2.28;;;2.08;;
70313;SDS011;57725;47.526;18.986;2022-08-21T16:48:22;2.70;;;2.30;;
70313;SDS011;57725;47.526;18.986;2022-08-21T16:50:50;2.47;;;2.17;;
70313;SDS011;57725;47.526;18.986;2022-08-21T16:53:15;2.60;;;2.40;;